LIPH/TSF METAR and TAF weather

Enter ICAO airport designator
Station Type Date Time Source
LIPH METAR 2022/06/27 07:50 UTC NOAA

LIPH 270750Z 07005KT 010V120 CAVOK 29/18 Q1015


Station Type Date Time Source
LIPH Decoded METAR 2022/06/27 07:50 UTC NOAA

Treviso / S. Angelo, Italy (LIPH) 45-39N 012-11E 23M
Jun 27, 2022 - 03:50 AM EDT / 2022.06.27 0750 UTC
Wind: from the ENE (070 degrees) at 6 MPH (5 KT) (direction variable):0
Visibility: greater than 7 mile(s):0
Temperature: 84 F (29 C)
Dew Point: 64 F (18 C)
Relative Humidity: 51%
Pressure (altimeter): 29.97 in. Hg (1015 hPa)
ob: LIPH 270750Z 07005KT 010V120 CAVOK 29/18 Q1015
cycle: 8

Station Type Date Time Source
LIPH TAF 2022/06/27 06:21 UTC NOAA

TAF LIPH 270500Z 2706/2806 VRB05KT CAVOK
BECMG 2710/2712 16010KT
BECMG 2716/2718 VRB05KT

Example: see airport list